Time;durP1;ratioP1;P1;durP2;ratioP2;P2;SDS_P1;SDS_P2;PMS_P1;PMS_P2;Temp;Humidity;BMP_temperature;BMP_pressure;BME280_temperature;BME280_humidity;BME280_pressure;Samples;Min_cycle;Max_cycle;Signal;HPM_P1;HPM_P2
2024/02/22 00:01:01;;;;;;;;;0.00;0.00;;;;;16.99;100.00;100023.78;5092155;28;28472;-83
2024/02/22 00:03:26;;;;;;;;;0.00;0.00;;;;;17.07;100.00;100025.88;5093198;28;28641;-83
2024/02/22 00:05:51;;;;;;;;;0.00;0.00;;;;;17.01;100.00;100021.88;5092795;28;52294;-84
2024/02/22 00:08:17;;;;;;;;;0.00;0.00;;;;;16.96;100.00;100011.69;5093312;28;28500;-84
2024/02/22 00:10:42;;;;;;;;;0.00;0.00;;;;;17.05;100.00;100006.75;5093481;28;28461;-83
2024/02/22 00:13:07;;;;;;;;;0.00;0.00;;;;;17.10;100.00;99999.41;5092686;28;45070;-84
2024/02/22 00:15:33;;;;;;;;;0.00;0.00;;;;;17.09;100.00;99997.72;5093464;28;52661;-83
2024/02/22 00:17:58;;;;;;;;;0.00;0.00;;;;;17.14;100.00;99995.59;5092467;28;40188;-84
2024/02/22 00:20:23;;;;;;;;;0.00;0.00;;;;;17.08;100.00;100002.13;5092381;28;47528;-83
2024/02/22 00:22:49;;;;;;;;;0.00;0.00;;;;;17.18;100.00;99986.59;5092465;28;50230;-84
2024/02/22 00:25:15;;;;;;;;;0.00;0.00;;;;;17.09;100.00;99988.03;5074833;28;58713;-84
2024/02/22 00:27:40;;;;;;;;;0.00;0.00;;;;;17.17;100.00;99980.47;5094245;27;28353;-83
2024/02/22 00:30:09;;;;;;;;;0.00;0.00;;;;;17.24;100.00;99970.38;5091604;28;28484;-83
2024/02/22 00:32:35;;;;;;;;;0.00;0.00;;;;;17.31;100.00;99968.13;5093858;28;28463;-83
2024/02/22 00:35:00;;;;;;;;;0.00;0.00;;;;;17.27;100.00;99964.03;5092737;28;30148;-83
2024/02/22 00:37:26;;;;;;;;;0.00;0.00;;;;;17.39;100.00;99957.94;5093126;28;52336;-83
2024/02/22 00:39:51;;;;;;;;;0.00;0.00;;;;;17.33;100.00;99956.59;5092036;28;46803;-84
2024/02/22 00:42:16;;;;;;;;;0.00;0.00;;;;;17.43;100.00;99943.63;5092821;28;48523;-82
2024/02/22 00:44:42;;;;;;;;;0.00;0.00;;;;;17.28;100.00;99942.91;5092805;28;58914;-83
2024/02/22 00:47:07;;;;;;;;;0.00;0.00;;;;;17.19;100.00;99941.75;5093610;28;28352;-83
2024/02/22 00:49:32;;;;;;;;;0.00;0.00;;;;;17.22;100.00;99941.53;5092032;28;53411;-81
2024/02/22 00:51:58;;;;;;;;;0.00;0.00;;;;;17.27;100.00;99932.50;5091554;28;53230;-82
2024/02/22 00:54:23;;;;;;;;;0.00;0.00;;;;;17.24;100.00;99935.34;5092661;28;55461;-83
2024/02/22 00:56:49;;;;;;;;;0.00;0.00;;;;;17.18;100.00;99928.72;5074200;28;28730;-83
2024/02/22 00:59:14;;;;;;;;;0.00;0.00;;;;;17.12;100.00;99939.66;5092449;28;27832;-81
2024/02/22 01:01:41;;;;;;;;;0.00;0.00;;;;;17.29;100.00;99923.56;5093437;28;28480;-83
2024/02/22 01:04:06;;;;;;;;;0.00;0.00;;;;;17.21;100.00;99923.22;5093700;28;29228;-84
2024/02/22 01:06:33;;;;;;;;;0.00;0.00;;;;;17.83;100.00;99900.47;5092223;28;28513;-82
2024/02/22 01:08:59;;;;;;;;;0.00;0.00;;;;;18.07;100.00;99913.66;5092373;28;28335;-83
2024/02/22 01:11:24;;;;;;;;;0.00;0.00;;;;;17.49;100.00;99895.81;5125744;27;28577;-83
2024/02/22 01:13:50;;;;;;;;;0.00;0.00;;;;;17.37;100.00;99887.03;5086939;27;49607;-84
2024/02/22 01:16:18;;;;;;;;;0.00;0.00;;;;;17.33;100.00;99879.47;5085547;28;47011;-85
2024/02/22 01:18:44;;;;;;;;;0.00;0.00;;;;;17.28;100.00;99869.25;5078177;28;28366;-84
2024/02/22 01:21:09;;;;;;;;;0.00;0.00;;;;;17.33;100.00;99877.69;5092523;28;46796;-84
2024/02/22 01:23:35;;;;;;;;;0.00;0.00;;;;;17.32;100.00;99867.25;5091578;28;29515;-83
2024/02/22 01:26:01;;;;;;;;;0.00;0.00;;;;;17.27;100.00;99864.94;5093210;28;28406;-83
2024/02/22 01:28:26;;;;;;;;;0.00;0.00;;;;;17.25;100.00;99863.38;5126548;27;28471;-83
2024/02/22 01:30:51;;;;;;;;;0.00;0.00;;;;;17.36;100.00;99856.41;5125766;27;28455;-83
2024/02/22 01:33:17;;;;;;;;;0.00;0.00;;;;;17.42;100.00;99863.00;5126054;27;35584;-83
2024/02/22 01:35:44;;;;;;;;;0.00;0.00;;;;;17.39;100.00;99840.41;5107875;27;28377;-83
2024/02/22 01:38:09;;;;;;;;;0.00;0.00;;;;;17.46;100.00;99837.31;5071014;28;36929;-82
2024/02/22 01:40:34;;;;;;;;;0.00;0.00;;;;;17.35;100.00;99835.50;5072092;28;46349;-83
2024/02/22 01:43:00;;;;;;;;;0.00;0.00;;;;;17.35;100.00;99827.59;5071517;28;56829;-83
2024/02/22 01:45:25;;;;;;;;;0.00;0.00;;;;;17.28;100.00;99824.56;5072296;28;28637;-84
2024/02/22 01:47:51;;;;;;;;;0.00;0.00;;;;;17.32;100.00;99817.28;5105016;27;48871;-84
2024/02/22 01:50:17;;;;;;;;;0.00;0.00;;;;;17.40;100.00;99818.41;5114536;27;46712;-83
2024/02/22 01:52:42;;;;;;;;;0.00;0.00;;;;;17.35;100.00;99823.16;5091628;28;28662;-83
2024/02/22 01:55:08;;;;;;;;;0.00;0.00;;;;;17.33;100.00;99816.34;5091989;28;46159;-84
2024/02/22 01:57:34;;;;;;;;;0.00;0.00;;;;;17.32;100.00;99815.47;5090829;28;53767;-83
2024/02/22 02:00:01;;;;;;;;;0.00;0.00;;;;;17.41;100.00;99806.94;5074319;28;28585;-83
2024/02/22 02:02:27;;;;;;;;;0.00;0.00;;;;;17.36;100.00;99800.31;5092490;27;29217;-83
2024/02/22 02:04:53;;;;;;;;;0.00;0.00;;;;;17.35;100.00;99798.66;5074564;28;28937;-83
2024/02/22 02:07:19;;;;;;;;;0.00;0.00;;;;;17.28;100.00;99786.91;5091770;28;28438;-83
2024/02/22 02:09:44;;;;;;;;;0.00;0.00;;;;;17.37;100.00;99779.19;5089414;28;53809;-83
2024/02/22 02:12:10;;;;;;;;;0.00;0.00;;;;;17.55;100.00;99763.84;5092313;28;28538;-83
2024/02/22 02:14:35;;;;;;;;;0.00;0.00;;;;;17.37;100.00;99759.94;5091856;28;28548;-83
2024/02/22 02:17:00;;;;;;;;;0.00;0.00;;;;;17.34;100.00;99758.34;5092016;27;45778;-82
2024/02/22 02:19:26;;;;;;;;;0.00;0.00;;;;;17.48;100.00;99751.25;5091565;27;55347;-83
2024/02/22 02:22:10;;;;;;;;;0.00;0.00;;;;;17.50;100.00;99747.56;5091060;28;28412;-82
2024/02/22 02:24:52;;;;;;;;;0.00;0.00;;;;;17.39;100.00;99750.97;5083983;27;28574;-82
2024/02/22 02:27:17;;;;;;;;;0.00;0.00;;;;;17.46;100.00;99730.31;5070712;28;28525;-83
2024/02/22 02:29:43;;;;;;;;;0.00;0.00;;;;;17.44;100.00;99726.09;5072323;28;28480;-82
2024/02/22 02:32:09;;;;;;;;;0.00;0.00;;;;;17.45;100.00;99730.44;5070569;28;28806;-83
2024/02/22 02:34:34;;;;;;;;;0.00;0.00;;;;;17.46;100.00;99725.06;5086584;28;53675;-83
2024/02/22 02:36:59;;;;;;;;;0.00;0.00;;;;;17.48;100.00;99727.59;5071705;28;32525;-83
2024/02/22 02:39:25;;;;;;;;;0.00;0.00;;;;;17.47;100.00;99710.09;5074042;28;31972;-83
2024/02/22 02:41:51;;;;;;;;;0.00;0.00;;;;;17.51;100.00;99707.13;5091478;28;45640;-83
2024/02/22 02:44:16;;;;;;;;;0.00;0.00;;;;;17.57;100.00;99713.75;5091712;28;28377;-83
2024/02/22 02:46:41;;;;;;;;;0.00;0.00;;;;;17.61;100.00;99707.28;5090152;28;50952;-83
2024/02/22 02:49:07;;;;;;;;;0.00;0.00;;;;;17.61;100.00;99707.28;5074526;28;52231;-83
2024/02/22 02:51:32;;;;;;;;;0.00;0.00;;;;;17.56;100.00;99706.78;5091004;27;56862;-83
2024/02/22 02:53:58;;;;;;;;;0.00;0.00;;;;;17.54;100.00;99687.66;5090534;28;28440;-82
2024/02/22 02:56:23;;;;;;;;;0.00;0.00;;;;;17.54;100.00;99679.75;5090588;28;28457;-83
2024/02/22 02:58:48;;;;;;;;;0.00;0.00;;;;;17.48;100.00;99675.78;5091903;28;28350;-83
2024/02/22 03:01:14;;;;;;;;;0.00;0.00;;;;;17.49;100.00;99668.72;5091091;28;28505;-83
2024/02/22 03:03:39;;;;;;;;;0.00;0.00;;;;;17.52;100.00;99669.34;5090198;28;33501;-82
2024/02/22 03:06:04;;;;;;;;;0.00;0.00;;;;;17.53;100.00;99657.03;5089982;27;50259;-82
2024/02/22 03:08:30;;;;;;;;;0.00;0.00;;;;;17.44;100.00;99652.44;5091734;28;28586;-83
2024/02/22 03:10:55;;;;;;;;;0.00;0.00;;;;;17.50;100.00;99641.50;5090310;28;29536;-83
2024/02/22 03:13:21;;;;;;;;;0.00;0.00;;;;;17.61;100.00;99642.34;5090458;28;56014;-83
2024/02/22 03:15:48;;;;;;;;;0.00;0.00;;;;;17.70;100.00;99637.31;5091635;28;28384;-83
2024/02/22 03:18:13;;;;;;;;;0.00;0.00;;;;;17.77;100.00;99634.13;5091693;27;28573;-83
2024/02/22 03:20:39;;;;;;;;;0.00;0.00;;;;;17.74;100.00;99629.09;5088595;28;58332;-83
2024/02/22 03:23:04;;;;;;;;;0.00;0.00;;;;;17.73;100.00;99623.94;5091140;28;28379;-83
2024/02/22 03:25:30;;;;;;;;;0.00;0.00;;;;;17.73;100.00;99613.41;5089797;28;32854;-83
2024/02/22 03:27:58;;;;;;;;;0.00;0.00;;;;;17.65;100.00;99616.63;5090659;28;28345;-81
2024/02/22 03:30:24;;;;;;;;;0.00;0.00;;;;;17.68;100.00;99608.53;5091590;27;29428;-83
2024/02/22 03:32:49;;;;;;;;;0.00;0.00;;;;;17.67;100.00;99606.81;5091396;27;28497;-84
2024/02/22 03:35:14;;;;;;;;;0.00;0.00;;;;;17.71;100.00;99594.28;5092490;28;28592;-83
2024/02/22 03:37:40;;;;;;;;;0.00;0.00;;;;;17.72;100.00;99596.78;5075011;28;53809;-83
2024/02/22 03:40:06;;;;;;;;;0.00;0.00;;;;;17.77;100.00;99588.53;5093907;28;55290;-84
2024/02/22 03:42:31;;;;;;;;;0.00;0.00;;;;;17.77;100.00;99570.09;5076797;28;29132;-84
2024/02/22 03:44:57;;;;;;;;;0.00;0.00;;;;;17.80;100.00;99570.72;5093737;28;28464;-84
2024/02/22 03:47:22;;;;;;;;;0.00;0.00;;;;;17.96;100.00;99561.66;5094278;28;55658;-84
2024/02/22 03:49:47;;;;;;;;;0.00;0.00;;;;;17.88;100.00;99554.34;5093757;28;29538;-85
2024/02/22 03:52:13;;;;;;;;;0.00;0.00;;;;;17.88;100.00;99556.16;5092171;28;55519;-84
2024/02/22 03:54:39;;;;;;;;;0.00;0.00;;;;;17.82;100.00;99564.50;5094401;28;28521;-84
2024/02/22 03:57:04;;;;;;;;;0.00;0.00;;;;;17.78;100.00;99559.47;5092487;28;28335;-84
2024/02/22 03:59:30;;;;;;;;;0.00;0.00;;;;;17.78;100.00;99564.72;5093828;28;28414;-85
2024/02/22 04:01:55;;;;;;;;;0.00;0.00;;;;;17.72;100.00;99570.47;5093406;28;29218;-84
2024/02/22 04:04:21;;;;;;;;;0.00;0.00;;;;;17.74;100.00;99563.28;5093495;28;28335;-84
2024/02/22 04:06:46;;;;;;;;;0.00;0.00;;;;;17.82;100.00;99559.25;5093795;27;55727;-84
2024/02/22 04:09:11;;;;;;;;;0.00;0.00;;;;;17.89;100.00;99555.22;5092366;28;53405;-84
2024/02/22 04:11:37;;;;;;;;;0.00;0.00;;;;;17.87;100.00;99544.78;5093154;28;34650;-84
2024/02/22 04:14:02;;;;;;;;;0.00;0.00;;;;;17.82;100.00;99528.47;5092610;28;39975;-84
2024/02/22 04:16:27;;;;;;;;;0.00;0.00;;;;;17.82;100.00;99536.38;5091566;28;47033;-84
2024/02/22 04:18:53;;;;;;;;;0.00;0.00;;;;;17.82;100.00;99527.66;5094134;28;40429;-84
2024/02/22 04:21:18;;;;;;;;;0.00;0.00;;;;;17.68;100.00;99520.81;5093934;28;45908;-85
2024/02/22 04:23:43;;;;;;;;;0.00;0.00;;;;;17.76;100.00;99524.53;5092606;28;27873;-84
2024/02/22 04:26:09;;;;;;;;;0.00;0.00;;;;;17.78;100.00;99519.16;5093078;28;28334;-84
2024/02/22 04:28:34;;;;;;;;;0.00;0.00;;;;;17.77;100.00;99513.06;5126902;27;50812;-85
2024/02/22 04:31:03;;;;;;;;;0.00;0.00;;;;;17.82;100.00;99498.69;5094196;28;35527;-84
2024/02/22 04:33:29;;;;;;;;;0.00;0.00;;;;;17.81;100.00;99500.47;5091935;28;28393;-84
2024/02/22 04:35:54;;;;;;;;;0.00;0.00;;;;;17.67;100.00;99504.19;5093172;28;28341;-85
2024/02/22 04:38:22;;;;;;;;;0.00;0.00;;;;;17.76;100.00;99500.84;5091981;28;50725;-85
2024/02/22 04:40:47;;;;;;;;;0.00;0.00;;;;;17.73;100.00;99498.44;5092938;28;28541;-85
2024/02/22 04:43:13;;;;;;;;;0.00;0.00;;;;;17.61;100.00;99494.16;5093738;27;39150;-85
2024/02/22 04:45:38;;;;;;;;;0.00;0.00;;;;;17.52;100.00;99502.78;5092567;28;28709;-85
2024/02/22 04:48:04;;;;;;;;;0.00;0.00;;;;;17.63;100.00;99486.16;5093278;27;46398;-85
2024/02/22 04:50:33;;;;;;;;;0.00;0.00;;;;;17.61;100.00;99470.47;5083671;28;28416;-84
2024/02/22 04:52:59;;;;;;;;;0.00;0.00;;;;;17.61;100.00;99470.47;5092058;28;28421;-85
2024/02/22 04:55:24;;;;;;;;;0.00;0.00;;;;;17.56;100.00;99478.72;5092879;28;28487;-85
2024/02/22 04:57:50;;;;;;;;;0.00;0.00;;;;;17.60;100.00;99468.78;5093909;27;29053;-85
2024/02/22 05:00:15;;;;;;;;;0.00;0.00;;;;;17.54;100.00;99442.97;5074754;28;59440;-84
2024/02/22 05:02:41;;;;;;;;;0.00;0.00;;;;;17.59;100.00;99446.91;5092144;28;28552;-85
2024/02/22 05:05:07;;;;;;;;;0.00;0.00;;;;;17.59;100.00;99444.28;5092242;28;36629;-85
2024/02/22 05:07:33;;;;;;;;;0.00;0.00;;;;;17.46;100.00;99433.06;5092302;28;28554;-85
2024/02/22 05:09:58;;;;;;;;;0.00;0.00;;;;;17.56;100.00;99422.63;5094009;28;28421;-84
2024/02/22 05:12:23;;;;;;;;;0.00;0.00;;;;;17.55;100.00;99411.28;5092571;28;28371;-85
2024/02/22 05:14:49;;;;;;;;;0.00;0.00;;;;;17.51;100.00;99415.09;5093387;27;55407;-85
2024/02/22 05:17:14;;;;;;;;;0.00;0.00;;;;;17.53;100.00;99412.34;5093175;28;28494;-84
2024/02/22 05:19:40;;;;;;;;;0.00;0.00;;;;;17.58;100.00;99397.88;5087185;28;53175;-85
2024/02/22 05:22:06;;;;;;;;;0.00;0.00;;;;;17.60;100.00;99389.88;5073169;28;28393;-84
2024/02/22 05:24:32;;;;;;;;;0.00;0.00;;;;;17.59;100.00;99389.03;5072914;28;32274;-83
2024/02/22 05:26:58;;;;;;;;;0.00;0.00;;;;;17.58;100.00;99376.00;5072104;28;29412;-84
2024/02/22 05:29:23;;;;;;;;;0.00;0.00;;;;;17.63;100.00;99368.56;5075589;28;28022;-84
2024/02/22 05:31:49;;;;;;;;;0.00;0.00;;;;;17.70;100.00;99358.38;5093552;28;28735;-84
2024/02/22 05:34:14;;;;;;;;;0.00;0.00;;;;;17.67;100.00;99367.38;5092321;28;28464;-84
2024/02/22 05:36:40;;;;;;;;;0.00;0.00;;;;;17.66;100.00;99363.03;5092765;28;36269;-84
2024/02/22 05:39:07;;;;;;;;;0.00;0.00;;;;;17.69;100.00;99373.34;5093233;28;28309;-83
2024/02/22 05:41:33;;;;;;;;;0.00;0.00;;;;;17.72;100.00;99359.13;5092204;28;28467;-83
2024/02/22 05:43:58;;;;;;;;;0.00;0.00;;;;;17.51;100.00;99375.63;5092209;28;27772;-84
2024/02/22 05:46:23;;;;;;;;;0.00;0.00;;;;;17.67;100.00;99359.47;5091089;28;28565;-83
2024/02/22 05:48:49;;;;;;;;;0.00;0.00;;;;;17.69;100.00;99347.03;5092541;28;54291;-83
2024/02/22 05:51:14;;;;;;;;;0.00;0.00;;;;;17.64;100.00;99343.09;5073469;28;28525;-83
2024/02/22 05:53:40;;;;;;;;;0.00;0.00;;;;;17.69;100.00;99340.94;5070591;28;48461;-83
2024/02/22 05:56:06;;;;;;;;;0.00;0.00;;;;;17.77;100.00;99327.97;5071391;28;28524;-83
2024/02/22 05:58:32;;;;;;;;;0.00;0.00;;;;;17.82;100.00;99320.56;5072044;28;28493;-84
2024/02/22 06:00:57;;;;;;;;;0.00;0.00;;;;;17.89;100.00;99316.50;5071735;28;28526;-84
2024/02/22 06:03:23;;;;;;;;;0.00;0.00;;;;;17.76;100.00;99323.69;5071494;28;28566;-84
2024/02/22 06:05:48;;;;;;;;;0.00;0.00;;;;;17.87;100.00;99307.06;5085830;28;57625;-84
2024/02/22 06:08:14;;;;;;;;;0.00;0.00;;;;;17.83;100.00;99321.38;5092896;27;28566;-83
2024/02/22 06:10:39;;;;;;;;;0.00;0.00;;;;;17.71;100.00;99325.84;5091998;28;28468;-87
2024/02/22 06:13:04;;;;;;;;;0.00;0.00;;;;;17.87;100.00;99320.22;5091478;28;41418;-84
2024/02/22 06:15:29;;;;;;;;;0.00;0.00;;;;;17.96;100.00;99320.28;5092040;28;57331;-84
2024/02/22 06:17:55;;;;;;;;;0.00;0.00;;;;;17.96;100.00;99316.84;5092394;27;51529;-83
2024/02/22 06:20:20;;;;;;;;;0.00;0.00;;;;;17.82;100.00;99319.72;5091796;27;54805;-84
2024/02/22 06:22:45;;;;;;;;;0.00;0.00;;;;;17.88;100.00;99320.06;5089377;28;51933;-84
2024/02/22 06:25:12;;;;;;;;;0.00;0.00;;;;;17.87;100.00;99300.00;5090525;28;56311;-84
2024/02/22 06:27:45;;;;;;;;;0.00;0.00;;;;;17.94;100.00;99300.31;5091858;28;28400;-84
2024/02/22 06:30:11;;;;;;;;;0.00;0.00;;;;;17.86;100.00;99302.75;5091832;28;28369;-84
2024/02/22 06:32:36;;;;;;;;;0.00;0.00;;;;;17.89;100.00;99297.25;5091744;28;28487;-84
2024/02/22 06:35:02;;;;;;;;;0.00;0.00;;;;;17.90;100.00;99288.38;5091004;28;29169;-83
2024/02/22 06:37:27;;;;;;;;;0.00;0.00;;;;;17.76;100.00;99300.00;5091735;28;28407;-83
2024/02/22 06:39:52;;;;;;;;;0.00;0.00;;;;;17.73;100.00;99302.88;5091804;28;47043;-82
2024/02/22 06:42:18;;;;;;;;;0.00;0.00;;;;;17.86;100.00;99263.25;5091344;28;28337;-83
2024/02/22 06:44:45;;;;;;;;;0.00;0.00;;;;;17.86;100.00;99265.91;5090823;28;44242;-82
2024/02/22 06:47:10;;;;;;;;;0.00;0.00;;;;;17.83;100.00;99269.59;5074333;28;28528;-83
2024/02/22 06:49:35;;;;;;;;;0.00;0.00;;;;;17.83;100.00;99271.38;5091267;28;28507;-85
2024/02/22 06:52:01;;;;;;;;;0.00;0.00;;;;;17.82;100.00;99261.81;5086508;28;50615;-85
2024/02/22 06:54:26;;;;;;;;;0.00;0.00;;;;;17.91;100.00;99245.28;5087310;28;38164;-85
2024/02/22 06:56:52;;;;;;;;;0.00;0.00;;;;;17.91;100.00;99254.03;5075252;28;28630;-86
2024/02/22 06:59:17;;;;;;;;;0.00;0.00;;;;;18.01;100.00;99248.81;5074466;28;28524;-85
2024/02/22 07:01:45;;;;;;;;;0.00;0.00;;;;;17.94;100.00;99242.38;5091328;28;28366;-86
2024/02/22 07:04:11;;;;;;;;;0.00;0.00;;;;;17.97;100.00;99247.41;5070044;28;29777;-85
2024/02/22 07:06:36;;;;;;;;;0.00;0.00;;;;;17.94;100.00;99247.66;5079673;28;28468;-85
2024/02/22 07:09:02;;;;;;;;;0.00;0.00;;;;;17.98;100.00;99252.56;5090746;28;28478;-84
2024/02/22 07:11:29;;;;;;;;;0.00;0.00;;;;;17.92;100.00;99249.59;5090447;28;28535;-84
2024/02/22 07:13:55;;;;;;;;;0.00;0.00;;;;;17.97;100.00;99239.50;5091082;27;28560;-83
2024/02/22 07:16:20;;;;;;;;;0.00;0.00;;;;;17.97;100.00;99223.72;5090715;27;28515;-83
2024/02/22 07:18:46;;;;;;;;;0.00;0.00;;;;;17.95;100.00;99226.47;5090081;28;28444;-84
2024/02/22 07:21:11;;;;;;;;;0.00;0.00;;;;;17.93;100.00;99223.13;5123301;27;28475;-86
2024/02/22 07:23:36;;;;;;;;;0.00;0.00;;;;;17.92;100.00;99213.59;5091775;27;28525;-81
2024/02/22 07:26:02;;;;;;;;;0.00;0.00;;;;;17.98;100.00;99209.59;5090915;27;28790;-86
2024/02/22 07:28:27;;;;;;;;;0.00;0.00;;;;;17.89;100.00;99205.13;5091455;27;28453;-85
2024/02/22 07:30:53;;;;;;;;;0.00;0.00;;;;;17.88;100.00;99203.44;5088500;28;28493;-84
2024/02/22 07:33:18;;;;;;;;;0.00;0.00;;;;;17.96;100.00;99195.75;5089867;28;29185;-84
2024/02/22 07:35:46;;;;;;;;;0.00;0.00;;;;;17.93;100.00;99201.25;5090427;28;38867;-85
2024/02/22 07:38:11;;;;;;;;;0.00;0.00;;;;;17.86;100.00;99187.75;5089735;27;28603;-84
2024/02/22 07:40:37;;;;;;;;;0.00;0.00;;;;;17.96;100.00;99169.41;5089337;28;52501;-83
2024/02/22 07:43:02;;;;;;;;;0.00;0.00;;;;;17.91;100.00;99166.34;5091412;27;29327;-84
2024/02/22 07:45:28;;;;;;;;;0.00;0.00;;;;;18.05;100.00;99152.81;5090464;28;28758;-84
2024/02/22 07:47:57;;;;;;;;;0.00;0.00;;;;;18.01;100.00;99153.22;5090113;28;28273;-84
2024/02/22 07:50:23;;;;;;;;;0.00;0.00;;;;;18.04;100.00;99143.25;5090614;28;28529;-84
2024/02/22 07:52:48;;;;;;;;;0.00;0.00;;;;;18.07;100.00;99136.88;5090504;28;30375;-85
2024/02/22 07:55:14;;;;;;;;;0.00;0.00;;;;;18.01;100.00;99137.41;5091689;28;28440;-86
2024/02/22 07:57:39;;;;;;;;;0.00;0.00;;;;;18.02;100.00;99139.09;5091885;27;28471;-85
2024/02/22 08:00:07;;;;;;;;;0.00;0.00;;;;;18.09;100.00;99135.81;5091511;28;28587;-85
2024/02/22 08:02:33;;;;;;;;;0.00;0.00;;;;;18.15;100.00;99140.53;5091219;27;28416;-84
2024/02/22 08:04:58;;;;;;;;;0.00;0.00;;;;;18.13;100.00;99110.03;5091582;28;28391;-84
2024/02/22 08:07:24;;;;;;;;;0.00;0.00;;;;;18.08;100.00;99101.72;5091010;28;47627;-85
2024/02/22 08:09:49;;;;;;;;;0.00;0.00;;;;;18.08;100.00;99089.38;5091575;27;28586;-85
2024/02/22 08:12:15;;;;;;;;;0.00;0.00;;;;;18.09;100.00;99077.03;5090040;28;29963;-84
2024/02/22 08:14:41;;;;;;;;;0.00;0.00;;;;;18.08;100.00;99065.66;5090144;28;28435;-84
2024/02/22 08:17:06;;;;;;;;;0.00;0.00;;;;;18.07;100.00;99065.78;5124385;27;28441;-84
2024/02/22 08:19:31;;;;;;;;;0.00;0.00;;;;;18.09;100.00;99058.59;5091537;27;28365;-84
2024/02/22 08:21:57;;;;;;;;;0.00;0.00;;;;;18.13;100.00;99058.22;5107985;27;58879;-85
2024/02/22 08:24:22;;;;;;;;;0.00;0.00;;;;;18.04;100.00;99064.28;5127116;27;54946;-85
2024/02/22 08:26:47;;;;;;;;;0.00;0.00;;;;;18.07;100.00;99065.78;5128022;27;27814;-85
2024/02/22 08:29:13;;;;;;;;;0.00;0.00;;;;;18.08;100.00;99060.41;5128116;27;28515;-85
2024/02/22 08:31:38;;;;;;;;;0.00;0.00;;;;;18.19;100.00;99055.03;5075947;28;31322;-83
2024/02/22 08:34:03;;;;;;;;;0.00;0.00;;;;;18.20;100.00;99040.06;5076780;28;28386;-85
2024/02/22 08:36:29;;;;;;;;;0.00;0.00;;;;;18.25;100.00;99037.03;5127744;27;31123;-85
2024/02/22 08:38:54;;;;;;;;;0.00;0.00;;;;;18.19;100.00;99039.22;5076319;28;28416;-84
2024/02/22 08:41:21;;;;;;;;;0.00;0.00;;;;;18.27;100.00;99021.94;5093494;28;28378;-85
2024/02/22 08:43:47;;;;;;;;;0.00;0.00;;;;;18.22;100.00;99019.72;5093580;28;28590;-85
2024/02/22 08:46:12;;;;;;;;;0.00;0.00;;;;;18.13;100.00;99038.94;5092386;28;51452;-83
2024/02/22 08:48:37;;;;;;;;;0.00;0.00;;;;;18.36;100.00;98989.50;5093281;28;33680;-84
2024/02/22 08:51:03;;;;;;;;;0.00;0.00;;;;;18.34;100.00;98994.91;5093026;28;28408;-85
2024/02/22 08:53:28;;;;;;;;;0.00;0.00;;;;;18.31;100.00;99005.72;5094557;27;28304;-84
2024/02/22 08:55:54;;;;;;;;;0.00;0.00;;;;;18.30;100.00;98990.88;5094719;27;28377;-85
2024/02/22 08:58:21;;;;;;;;;0.00;0.00;;;;;18.35;100.00;98995.75;5092570;28;45131;-84
2024/02/22 09:00:47;;;;;;;;;0.00;0.00;;;;;18.49;100.00;98981.34;5094183;27;28553;-84
2024/02/22 09:03:13;;;;;;;;;0.00;0.00;;;;;18.60;100.00;98968.03;5094045;27;28834;-84
2024/02/22 09:05:41;;;;;;;;;0.00;0.00;;;;;18.41;100.00;98989.94;5093298;28;28464;-85
2024/02/22 09:08:06;;;;;;;;;0.00;0.00;;;;;18.18;100.00;98978.78;5093204;28;28527;-84
2024/02/22 09:10:32;;;;;;;;;0.00;0.00;;;;;18.34;100.00;98965.94;5094226;27;29481;-85
2024/02/22 09:12:57;;;;;;;;;0.00;0.00;;;;;18.30;100.00;98969.00;5092786;28;28544;-85
2024/02/22 09:15:23;;;;;;;;;0.00;0.00;;;;;18.34;100.00;98950.13;5092522;28;28418;-85
2024/02/22 09:17:48;;;;;;;;;0.00;0.00;;;;;18.26;100.00;98949.19;5093558;27;49806;-85
2024/02/22 09:20:14;;;;;;;;;0.00;0.00;;;;;18.31;100.00;98928.50;5092501;27;29686;-86
2024/02/22 09:22:41;;;;;;;;;0.00;0.00;;;;;18.27;100.00;98933.22;5094022;27;28378;-86
2024/02/22 09:25:07;;;;;;;;;0.00;0.00;;;;;18.20;100.00;98940.00;5100224;27;28488;-85
2024/02/22 09:27:33;;;;;;;;;0.00;0.00;;;;;18.31;100.00;98932.00;5095896;27;28464;-85
2024/02/22 09:30:01;;;;;;;;;0.00;0.00;;;;;18.42;100.00;98917.81;5096060;27;30204;-84
2024/02/22 09:32:27;;;;;;;;;0.00;0.00;;;;;18.38;100.00;98924.34;5095762;27;28362;-84
2024/02/22 09:34:52;;;;;;;;;0.00;0.00;;;;;18.03;100.00;98945.94;5114202;27;28384;-84
2024/02/22 09:37:19;;;;;;;;;0.00;0.00;;;;;18.28;100.00;98915.63;5113417;27;49984;-81
2024/02/22 09:39:46;;;;;;;;;0.00;0.00;;;;;18.34;100.00;98886.91;5095807;27;29527;-84
2024/02/22 09:42:12;;;;;;;;;0.00;0.00;;;;;18.27;100.00;98887.63;5095762;27;28410;-85
2024/02/22 09:44:38;;;;;;;;;0.00;0.00;;;;;18.36;100.00;98884.16;5096136;27;28574;-85
2024/02/22 09:47:04;;;;;;;;;0.00;0.00;;;;;18.32;100.00;98875.69;5095811;27;28492;-85
2024/02/22 09:49:30;;;;;;;;;0.00;0.00;;;;;18.34;100.00;98873.75;5109665;27;30422;-85
2024/02/22 09:51:56;;;;;;;;;0.00;0.00;;;;;18.24;100.00;98864.19;5075610;28;28344;-84
2024/02/22 09:54:22;;;;;;;;;0.00;0.00;;;;;18.22;100.00;98874.88;5093683;28;28672;-84
2024/02/22 09:56:48;;;;;;;;;0.00;0.00;;;;;18.40;100.00;98861.00;5058337;28;28525;-85
2024/02/22 09:59:13;;;;;;;;;0.00;0.00;;;;;18.17;100.00;98850.75;5093355;28;28374;-85
2024/02/22 10:01:40;;;;;;;;;0.00;0.00;;;;;18.50;100.00;98841.56;5075510;28;28394;-85
2024/02/22 10:04:23;;;;;;;;;0.00;0.00;;;;;18.31;100.00;98836.31;5075215;28;28476;-84
2024/02/22 10:06:49;;;;;;;;;0.00;0.00;;;;;18.31;100.00;98823.16;5093599;28;28386;-85
2024/02/22 10:09:15;;;;;;;;;0.00;0.00;;;;;18.26;100.00;98830.66;5075107;28;29725;-85
2024/02/22 10:11:44;;;;;;;;;0.00;0.00;;;;;18.30;100.00;98809.16;5092772;28;28416;-85
2024/02/22 10:14:11;;;;;;;;;0.00;0.00;;;;;18.22;100.00;98803.78;5075175;28;28350;-86
2024/02/22 10:16:38;;;;;;;;;0.00;0.00;;;;;18.28;100.00;98803.22;5092979;28;28501;-84
2024/02/22 10:19:03;;;;;;;;;0.00;0.00;;;;;18.29;100.00;98789.06;5093106;28;30173;-84
2024/02/22 10:21:30;;;;;;;;;0.00;0.00;;;;;18.33;100.00;98774.66;5093148;28;28437;-84
2024/02/22 10:23:57;;;;;;;;;0.00;0.00;;;;;18.60;100.00;98780.13;5093028;28;28445;-85
2024/02/22 10:26:24;;;;;;;;;0.00;0.00;;;;;18.74;100.00;98763.84;5092762;28;28531;-85
2024/02/22 10:28:58;;;;;;;;;0.00;0.00;;;;;18.86;100.00;98773.25;5075301;28;29363;-84
2024/02/22 10:31:24;;;;;;;;;0.00;0.00;;;;;18.40;100.00;98785.44;5074611;28;28879;-85
2024/02/22 10:33:52;;;;;;;;;0.00;0.00;;;;;18.69;100.00;98748.47;5074948;28;28369;-85
2024/02/22 10:36:19;;;;;;;;;0.00;0.00;;;;;18.68;100.00;98736.25;5057844;28;28696;-86
2024/02/22 10:38:45;;;;;;;;;0.00;0.00;;;;;18.78;100.00;98720.41;5092698;28;28696;-86
2024/02/22 10:41:11;;;;;;;;;0.00;0.00;;;;;18.64;100.00;98720.88;5092489;28;28417;-85
2024/02/22 10:43:39;;;;;;;;;0.00;0.00;;;;;18.72;100.00;98719.19;5073735;28;47564;-85
2024/02/22 10:46:08;;;;;;;;;0.00;0.00;;;;;18.75;100.00;98718.88;5075068;28;28322;-84
2024/02/22 10:48:43;;;;;;;;;0.00;0.00;;;;;18.70;100.00;98715.03;5074667;28;28566;-86
2024/02/22 10:51:09;;;;;;;;;0.00;0.00;;;;;18.76;100.00;98725.84;5058702;28;28352;-86
2024/02/22 10:53:39;;;;;;;;;0.00;0.00;;;;;18.73;100.00;98718.22;5054862;28;28454;-87
2024/02/22 10:56:06;;;;;;;;;0.00;0.00;;;;;18.55;100.00;98747.16;5054529;28;28419;-86
2024/02/22 10:58:33;;;;;;;;;0.00;0.00;;;;;18.79;100.00;98724.69;5071055;28;30144;-85
2024/02/22 11:01:03;;;;;;;;;0.00;0.00;;;;;18.87;100.00;98724.00;5054349;28;28437;-86
2024/02/22 11:03:30;;;;;;;;;0.00;0.00;;;;;18.62;100.00;98747.38;5054500;28;28294;-83
2024/02/22 11:05:55;;;;;;;;;0.00;0.00;;;;;18.68;100.00;98722.25;5054515;28;28299;-85
2024/02/22 11:08:21;;;;;;;;;0.00;0.00;;;;;18.76;100.00;98694.19;5053417;28;51269;-84
2024/02/22 11:11:02;;;;;;;;;0.00;0.00;;;;;18.55;100.00;98681.28;5053157;28;54027;-85
2024/02/22 11:13:28;;;;;;;;;0.00;0.00;;;;;18.56;100.00;98653.94;5054234;28;28419;-85
2024/02/22 11:15:53;;;;;;;;;0.00;0.00;;;;;18.75;100.00;98616.09;5054538;28;28666;-85
2024/02/22 11:18:23;;;;;;;;;0.00;0.00;;;;;18.55;100.00;98631.22;5071307;28;52188;-85